Time;durP1;ratioP1;P1;durP2;ratioP2;P2;SDS_P1;SDS_P2;PMS_P1;PMS_P2;Temp;Humidity;BMP_temperature;BMP_pressure;BME280_temperature;BME280_humidity;BME280_pressure;Samples;Min_cycle;Max_cycle;Signal;HPM_P1;HPM_P2
2023/06/15 00:00:57;;;;;;;8.67;6.73;;;14.20;99.90;;;;;;4977470;28;20277;-76
2023/06/15 00:03:25;;;;;;;8.33;7.50;;;14.20;99.90;;;;;;4977250;28;20241;-76
2023/06/15 00:05:53;;;;;;;7.67;6.97;;;14.10;99.90;;;;;;4977488;28;20634;-76
2023/06/15 00:08:21;;;;;;;7.20;6.50;;;14.10;99.90;;;;;;4975956;28;20236;-76
2023/06/15 00:10:48;;;;;;;6.87;6.10;;;14.10;99.90;;;;;;4976351;28;20197;-76
2023/06/15 00:13:15;;;;;;;6.77;6.07;;;14.00;99.90;;;;;;4977493;28;20677;-76
2023/06/15 00:15:42;;;;;;;5.27;4.53;;;14.00;99.90;;;;;;4977398;28;20197;-76
2023/06/15 00:18:09;;;;;;;8.40;5.17;;;14.00;99.90;;;;;;4977411;28;20201;-76
2023/06/15 00:20:37;;;;;;;6.70;6.10;;;14.00;99.90;;;;;;4977185;28;20198;-76
2023/06/15 00:23:04;;;;;;;5.50;4.80;;;13.90;99.90;;;;;;4976382;28;20221;-76
2023/06/15 00:25:33;;;;;;;6.23;4.33;;;13.90;99.90;;;;;;4976965;28;20679;-77
2023/06/15 00:28:00;;;;;;;7.00;6.30;;;13.90;99.90;;;;;;4976548;28;20203;-76
2023/06/15 00:30:27;;;;;;;5.97;4.87;;;13.80;99.90;;;;;;4976061;28;20204;-76
2023/06/15 00:32:53;;;;;;;4.90;4.40;;;13.80;99.90;;;;;;4991724;28;20264;-76
2023/06/15 00:35:20;;;;;;;6.83;4.50;;;13.80;99.90;;;;;;4991882;28;20210;-76
2023/06/15 00:37:47;;;;;;;6.53;5.17;;;13.80;99.90;;;;;;4975004;28;20582;-76
2023/06/15 00:40:14;;;;;;;6.90;6.27;;;13.70;99.90;;;;;;4975504;28;20205;-76
2023/06/15 00:42:44;;;;;;;7.63;6.60;;;13.70;99.90;;;;;;4978489;28;20215;-76
2023/06/15 00:45:12;;;;;;;6.20;5.10;;;13.70;99.90;;;;;;4975418;28;20205;-76
2023/06/15 00:47:41;;;;;;;7.80;5.37;;;13.70;99.90;;;;;;4975311;28;20223;-77
2023/06/15 00:50:10;;;;;;;5.30;4.60;;;13.70;99.90;;;;;;4975102;28;20289;-77
2023/06/15 00:52:37;;;;;;;7.00;5.97;;;13.60;99.90;;;;;;4975099;28;20211;-77
2023/06/15 00:55:05;;;;;;;6.20;4.97;;;13.60;99.90;;;;;;4977167;28;20199;-77
2023/06/15 00:57:32;;;;;;;5.13;4.57;;;13.50;99.90;;;;;;4977196;28;20288;-76
2023/06/15 01:00:03;;;;;;;6.47;5.00;;;13.60;99.90;;;;;;4982453;28;20240;-78
2023/06/15 01:02:30;;;;;;;7.33;4.93;;;13.50;99.90;;;;;;4983502;28;20213;-78
2023/06/15 01:04:57;;;;;;;5.53;4.90;;;13.50;99.90;;;;;;4982855;28;20198;-77
2023/06/15 01:07:27;;;;;;;9.23;5.47;;;13.40;99.90;;;;;;4996059;28;20234;-77
2023/06/15 01:09:56;;;;;;;5.50;4.90;;;13.40;99.90;;;;;;4980090;28;20194;-79
2023/06/15 01:12:24;;;;;;;7.07;5.33;;;13.40;99.90;;;;;;4979548;28;20209;-78
2023/06/15 01:14:51;;;;;;;7.53;6.77;;;13.40;99.90;;;;;;4972124;28;20222;-77
2023/06/15 01:17:23;;;;;;;6.27;4.83;;;13.40;99.90;;;;;;4998179;28;20230;-79
2023/06/15 01:19:57;;;;;;;7.50;6.80;;;13.30;99.90;;;;;;4977792;28;20207;-77
2023/06/15 01:22:35;;;;;;;5.87;5.00;;;13.30;99.90;;;;;;4980541;28;20234;-79
2023/06/15 01:25:10;;;;;;;6.73;5.13;;;13.30;99.90;;;;;;4976347;28;20194;-79
2023/06/15 01:27:41;;;;;;;8.23;5.43;;;13.20;99.90;;;;;;4979701;28;20222;-78
2023/06/15 01:30:10;;;;;;;8.33;4.93;;;13.20;99.90;;;;;;4987598;28;20210;-78
2023/06/15 01:32:38;;;;;;;7.27;6.57;;;13.20;99.90;;;;;;4979889;28;20213;-77
2023/06/15 01:35:05;;;;;;;5.67;5.10;;;13.10;99.90;;;;;;4980235;28;20246;-78
2023/06/15 01:37:32;;;;;;;6.90;5.80;;;13.10;99.90;;;;;;4979653;28;20237;-79
2023/06/15 01:39:59;;;;;;;5.63;4.87;;;13.10;99.90;;;;;;4986422;28;20201;-77
2023/06/15 01:42:26;;;;;;;5.97;5.27;;;13.10;99.90;;;;;;4980629;28;20269;-79
2023/06/15 01:44:55;;;;;;;7.73;7.03;;;13.00;99.90;;;;;;4973204;28;20280;-78
2023/06/15 01:47:23;;;;;;;8.47;7.67;;;13.00;99.90;;;;;;4980467;28;20573;-78
2023/06/15 01:49:50;;;;;;;10.83;7.10;;;12.90;99.90;;;;;;4981856;28;20193;-77
2023/06/15 01:52:17;;;;;;;10.27;6.47;;;12.90;99.90;;;;;;4994163;28;20293;-78
2023/06/15 01:54:44;;;;;;;8.73;5.57;;;13.00;99.90;;;;;;4979005;28;20194;-77
2023/06/15 01:57:11;;;;;;;8.10;7.40;;;12.90;99.90;;;;;;4980229;28;20273;-77
2023/06/15 01:59:37;;;;;;;7.57;6.93;;;12.90;99.90;;;;;;4978867;28;20202;-76
2023/06/15 02:02:06;;;;;;;7.33;6.20;;;12.90;99.90;;;;;;4980366;28;20288;-77
2023/06/15 02:04:33;;;;;;;9.53;7.23;;;12.80;99.90;;;;;;4979356;28;20214;-78
2023/06/15 02:07:02;;;;;;;7.90;7.10;;;12.80;99.90;;;;;;4978654;28;20221;-78
2023/06/15 02:09:29;;;;;;;6.90;5.67;;;12.80;99.90;;;;;;4979054;28;20587;-77
2023/06/15 02:11:57;;;;;;;6.30;5.30;;;12.80;99.90;;;;;;4976467;28;20197;-78
2023/06/15 02:14:25;;;;;;;7.10;5.33;;;12.70;99.90;;;;;;4981428;28;20197;-78
2023/06/15 02:16:52;;;;;;;7.10;5.00;;;12.70;99.90;;;;;;4977794;28;20225;-77
2023/06/15 02:19:21;;;;;;;6.60;5.03;;;12.70;99.90;;;;;;4979860;28;20202;-78
2023/06/15 02:21:49;;;;;;;8.00;5.13;;;12.70;99.90;;;;;;4977746;28;20202;-77
2023/06/15 02:24:16;;;;;;;8.47;7.70;;;12.60;99.90;;;;;;4978222;28;20703;-77
2023/06/15 02:26:43;;;;;;;6.83;6.13;;;12.50;99.90;;;;;;4978724;28;20249;-77
2023/06/15 02:29:10;;;;;;;7.93;7.13;;;12.50;99.90;;;;;;4978344;28;20202;-77
2023/06/15 02:31:37;;;;;;;7.63;6.93;;;12.50;99.90;;;;;;4994826;28;20214;-76
2023/06/15 02:34:04;;;;;;;7.57;5.83;;;12.50;99.90;;;;;;4979063;28;20638;-78
2023/06/15 02:36:34;;;;;;;8.50;6.40;;;12.50;99.90;;;;;;4978392;28;20240;-77
2023/06/15 02:39:02;;;;;;;7.70;6.70;;;12.40;99.90;;;;;;5006507;28;20197;-77
2023/06/15 02:41:29;;;;;;;7.00;5.93;;;12.40;99.90;;;;;;4987902;28;20198;-80
2023/06/15 02:43:57;;;;;;;6.60;5.50;;;12.40;99.90;;;;;;4978225;28;20587;-78
2023/06/15 02:46:23;;;;;;;7.83;7.03;;;12.40;99.90;;;;;;4976285;28;20286;-77
2023/06/15 02:48:52;;;;;;;8.33;7.60;;;12.40;99.90;;;;;;4977857;28;20210;-76
2023/06/15 02:51:21;;;;;;;8.07;7.27;;;12.40;99.90;;;;;;4970582;28;20322;-76
2023/06/15 02:53:50;;;;;;;7.80;7.10;;;12.40;99.90;;;;;;4980392;28;20691;-77
2023/06/15 02:56:19;;;;;;;7.10;6.40;;;12.40;99.90;;;;;;4969082;28;20249;-76
2023/06/15 02:58:47;;;;;;;8.13;7.33;;;12.40;99.90;;;;;;4970093;28;20272;-75
2023/06/15 03:01:21;;;;;;;8.00;7.30;;;12.40;99.90;;;;;;4970687;28;20272;-76
2023/06/15 03:03:54;;;;;;;10.10;8.57;;;12.40;99.90;;;;;;4966671;28;20220;-75
2023/06/15 03:06:24;;;;;;;7.60;6.73;;;12.40;99.90;;;;;;4968706;28;20610;-75
2023/06/15 03:08:53;;;;;;;6.13;5.20;;;12.40;99.90;;;;;;4973723;28;20210;-76
2023/06/15 03:11:29;;;;;;;6.97;5.33;;;12.40;99.90;;;;;;4974159;28;20232;-76
2023/06/15 03:13:57;;;;;;;6.03;4.90;;;12.40;99.90;;;;;;4983276;28;20565;-77
2023/06/15 03:16:26;;;;;;;5.57;4.93;;;12.40;99.90;;;;;;4993808;28;20249;-77
2023/06/15 03:18:53;;;;;;;5.37;4.87;;;12.40;99.90;;;;;;4976577;28;20202;-78
2023/06/15 03:21:22;;;;;;;7.50;5.67;;;12.40;99.90;;;;;;4976662;28;20196;-80
2023/06/15 03:23:56;;;;;;;7.37;5.93;;;12.40;99.90;;;;;;4977133;28;20693;-78
2023/06/15 03:26:23;;;;;;;7.30;5.37;;;12.40;99.90;;;;;;4992898;28;20660;-78
2023/06/15 03:28:52;;;;;;;7.00;4.70;;;12.40;99.90;;;;;;4984125;28;20197;-77
2023/06/15 03:31:19;;;;;;;7.20;5.63;;;12.40;99.90;;;;;;4975463;28;20205;-77
2023/06/15 03:33:47;;;;;;;7.53;5.30;;;12.40;99.90;;;;;;4976788;28;20275;-77
2023/06/15 03:36:16;;;;;;;6.13;4.60;;;12.40;99.90;;;;;;4976429;28;20632;-76
2023/06/15 03:38:43;;;;;;;6.77;5.27;;;12.40;99.90;;;;;;4976738;28;20272;-78
2023/06/15 03:41:12;;;;;;;9.07;5.47;;;12.40;99.90;;;;;;4972013;28;20219;-77
2023/06/15 03:43:39;;;;;;;7.27;5.60;;;12.50;99.90;;;;;;4975957;28;20210;-77
2023/06/15 03:46:06;;;;;;;6.90;5.43;;;12.50;99.90;;;;;;4980311;28;20220;-77
2023/06/15 03:48:33;;;;;;;8.40;6.10;;;12.50;99.90;;;;;;4975427;28;20221;-78
2023/06/15 03:51:00;;;;;;;8.07;6.03;;;12.50;99.90;;;;;;4970044;28;20256;-77
2023/06/15 03:53:28;;;;;;;7.97;6.00;;;12.50;99.90;;;;;;4975813;28;20202;-75
2023/06/15 03:55:54;;;;;;;8.73;6.17;;;12.60;99.90;;;;;;4976340;28;20238;-75
2023/06/15 03:58:25;;;;;;;7.27;5.70;;;12.60;99.90;;;;;;4977659;28;20209;-76
2023/06/15 04:00:52;;;;;;;6.80;5.70;;;12.50;99.90;;;;;;4981428;28;20638;-76
2023/06/15 04:03:19;;;;;;;6.07;5.30;;;12.60;99.90;;;;;;4975318;28;20214;-76
2023/06/15 04:05:48;;;;;;;7.73;5.17;;;12.60;99.90;;;;;;4972916;28;20725;-76
2023/06/15 04:08:16;;;;;;;6.03;5.13;;;12.60;99.90;;;;;;4989270;28;20201;-76
2023/06/15 04:10:42;;;;;;;6.27;5.37;;;12.60;99.90;;;;;;4974541;28;20253;-76
2023/06/15 04:13:09;;;;;;;8.00;5.67;;;12.60;99.90;;;;;;4974277;28;20209;-76
2023/06/15 04:15:39;;;;;;;11.23;5.70;;;12.70;99.90;;;;;;4989028;28;20691;-75
2023/06/15 04:18:07;;;;;;;6.87;6.17;;;12.70;99.90;;;;;;4972620;28;20206;-75
2023/06/15 04:20:36;;;;;;;7.70;5.53;;;12.70;99.90;;;;;;4973373;28;20202;-76
2023/06/15 04:23:03;;;;;;;7.43;6.17;;;12.80;99.90;;;;;;4972907;28;20206;-76
2023/06/15 04:25:30;;;;;;;7.23;6.10;;;12.80;99.90;;;;;;4988894;28;20229;-76
2023/06/15 04:27:57;;;;;;;6.90;6.10;;;12.90;99.90;;;;;;4973101;28;20198;-76
2023/06/15 04:30:25;;;;;;;7.30;6.30;;;12.90;99.90;;;;;;4973577;28;20205;-77
2023/06/15 04:32:59;;;;;;;9.47;7.23;;;12.90;99.90;;;;;;4973390;28;20230;-77
2023/06/15 04:35:28;;;;;;;8.33;7.47;;;13.00;99.90;;;;;;4973240;28;20256;-77
2023/06/15 04:37:58;;;;;;;9.87;8.53;;;12.90;99.90;;;;;;4973585;28;20238;-76
2023/06/15 04:40:25;;;;;;;8.53;7.73;;;12.90;99.90;;;;;;4989053;28;20205;-76
2023/06/15 04:42:53;;;;;;;8.63;7.83;;;12.90;99.90;;;;;;4974881;28;20202;-77
2023/06/15 04:45:20;;;;;;;8.33;7.13;;;12.90;99.90;;;;;;4988766;28;20272;-77
2023/06/15 04:47:48;;;;;;;8.60;7.70;;;12.90;99.90;;;;;;4980529;28;20221;-77
2023/06/15 04:50:16;;;;;;;7.80;7.10;;;12.90;99.90;;;;;;4973093;28;20218;-77
2023/06/15 04:52:43;;;;;;;6.87;6.17;;;13.00;99.90;;;;;;4972942;28;20693;-77
2023/06/15 04:55:11;;;;;;;7.03;6.30;;;13.10;99.90;;;;;;4988796;28;20198;-77
2023/06/15 04:57:38;;;;;;;7.77;6.23;;;13.10;99.90;;;;;;4972190;28;20237;-76
2023/06/15 05:00:08;;;;;;;7.67;6.97;;;13.20;99.90;;;;;;4973016;28;20246;-77
2023/06/15 05:02:40;;;;;;;7.80;7.00;;;13.20;99.90;;;;;;4989015;28;20225;-76
2023/06/15 05:05:08;;;;;;;8.57;7.77;;;13.30;99.90;;;;;;4971890;28;20220;-75
2023/06/15 05:07:36;;;;;;;9.30;8.50;;;13.40;99.90;;;;;;4972560;28;20217;-75
2023/06/15 05:10:03;;;;;;;6.97;6.20;;;13.50;99.90;;;;;;4988192;28;20199;-75
2023/06/15 05:12:32;;;;;;;10.17;6.87;;;13.60;99.90;;;;;;4971938;28;20209;-75
2023/06/15 05:14:59;;;;;;;6.83;5.40;;;14.00;99.90;;;;;;4975282;28;20201;-75
2023/06/15 05:17:26;;;;;;;5.87;4.53;;;14.50;99.90;;;;;;4967331;28;20226;-75
2023/06/15 05:19:54;;;;;;;5.70;5.10;;;15.10;99.90;;;;;;4971705;28;20215;-75
2023/06/15 05:22:21;;;;;;;6.53;5.23;;;15.40;99.90;;;;;;4987983;28;20209;-75
2023/06/15 05:24:49;;;;;;;7.03;5.00;;;15.60;99.90;;;;;;4972387;28;20231;-75
2023/06/15 05:27:16;;;;;;;5.97;4.93;;;15.70;99.90;;;;;;4987754;28;20221;-75
2023/06/15 05:29:46;;;;;;;7.77;5.47;;;15.50;99.90;;;;;;4971768;28;20208;-75
2023/06/15 05:32:14;;;;;;;5.80;5.13;;;15.40;99.90;;;;;;4971817;28;20207;-75
2023/06/15 05:34:41;;;;;;;5.90;5.17;;;15.30;99.90;;;;;;4971943;28;20209;-75
2023/06/15 05:37:07;;;;;;;7.13;5.60;;;15.30;99.90;;;;;;4987723;28;20264;-75
2023/06/15 05:39:38;;;;;;;7.93;5.50;;;15.30;99.90;;;;;;4971855;28;20205;-76
2023/06/15 05:42:07;;;;;;;6.07;5.40;;;15.40;99.90;;;;;;4971647;28;20652;-76
2023/06/15 05:44:36;;;;;;;7.80;6.30;;;15.30;99.90;;;;;;4971641;28;20213;-76
2023/06/15 05:47:04;;;;;;;7.07;5.97;;;15.30;99.90;;;;;;4972566;28;20215;-77
2023/06/15 05:49:32;;;;;;;8.00;6.27;;;15.30;99.90;;;;;;4974229;28;20219;-78
2023/06/15 05:52:00;;;;;;;7.67;6.73;;;15.30;99.90;;;;;;4974287;28;20202;-77
2023/06/15 05:54:29;;;;;;;6.57;5.67;;;15.40;99.90;;;;;;4973021;28;20289;-77
2023/06/15 05:56:57;;;;;;;6.03;5.07;;;15.50;99.90;;;;;;4987533;28;20306;-76
2023/06/15 05:59:25;;;;;;;7.00;6.30;;;15.70;99.90;;;;;;4972218;28;20211;-77
2023/06/15 06:01:52;;;;;;;7.17;5.50;;;16.10;99.90;;;;;;4988363;28;20337;-77
2023/06/15 06:04:19;;;;;;;6.70;5.07;;;16.40;99.90;;;;;;4971893;28;20202;-77
2023/06/15 06:06:46;;;;;;;7.87;6.30;;;16.70;99.90;;;;;;4972324;28;20599;-76
2023/06/15 06:09:13;;;;;;;7.43;6.70;;;16.90;99.90;;;;;;4988342;28;20685;-77
2023/06/15 06:11:40;;;;;;;8.27;7.03;;;17.10;99.90;;;;;;4973237;28;20359;-77
2023/06/15 06:14:07;;;;;;;6.97;5.97;;;17.30;99.90;;;;;;4972259;28;20199;-76
2023/06/15 06:16:35;;;;;;;7.10;5.50;;;17.40;99.90;;;;;;4971657;28;20235;-77
2023/06/15 06:19:02;;;;;;;8.27;5.73;;;17.70;99.90;;;;;;4971661;28;20204;-77
2023/06/15 06:21:31;;;;;;;6.23;4.83;;;18.10;99.90;;;;;;4987749;28;20699;-77
2023/06/15 06:23:58;;;;;;;7.00;6.30;;;18.60;99.90;;;;;;4973349;28;20212;-76
2023/06/15 06:26:25;;;;;;;7.17;6.10;;;18.70;99.90;;;;;;4977392;28;20232;-77
2023/06/15 06:28:52;;;;;;;5.37;4.83;;;19.20;99.90;;;;;;4974772;28;20202;-76
2023/06/15 06:31:19;;;;;;;6.03;5.43;;;19.60;99.90;;;;;;4973426;28;20205;-77
2023/06/15 06:33:47;;;;;;;7.27;4.83;;;19.90;99.90;;;;;;4971897;28;20647;-77
2023/06/15 06:36:14;;;;;;;6.93;5.60;;;20.60;99.90;;;;;;4971608;28;20226;-77
2023/06/15 06:38:41;;;;;;;7.60;5.53;;;21.00;99.90;;;;;;4971766;28;20808;-77
2023/06/15 06:41:08;;;;;;;6.07;4.77;;;21.50;99.90;;;;;;4972940;28;20727;-77
2023/06/15 06:43:34;;;;;;;5.77;4.77;;;22.00;99.90;;;;;;4988617;28;20687;-77
2023/06/15 06:46:01;;;;;;;7.07;5.33;;;22.50;99.90;;;;;;4968237;28;20230;-76
2023/06/15 06:48:28;;;;;;;5.47;4.37;;;22.80;99.90;;;;;;4976515;28;20208;-77
2023/06/15 06:50:56;;;;;;;6.30;5.23;;;23.20;99.90;;;;;;4970353;28;20277;-77
2023/06/15 06:53:23;;;;;;;6.77;5.20;;;23.30;99.90;;;;;;4969548;28;20257;-76
2023/06/15 06:55:49;;;;;;;6.37;4.47;;;23.60;99.90;;;;;;4975986;28;20307;-77
2023/06/15 06:58:16;;;;;;;6.03;4.90;;;24.00;99.90;;;;;;4976462;28;20210;-76
2023/06/15 07:00:43;;;;;;;5.27;4.77;;;24.10;99.90;;;;;;4976800;28;20711;-76
2023/06/15 07:03:10;;;;;;;8.03;4.90;;;23.90;99.70;;;;;;4976432;28;20217;-78
2023/06/15 07:05:37;;;;;;;5.43;4.93;;;23.90;99.90;;;;;;4975981;28;20213;-76
2023/06/15 07:08:05;;;;;;;5.20;4.60;;;24.10;99.90;;;;;;4976573;28;20293;-76
2023/06/15 07:10:32;;;;;;;5.17;4.67;;;24.30;99.00;;;;;;4976572;28;20293;-77
2023/06/15 07:12:59;;;;;;;5.23;4.47;;;24.60;98.90;;;;;;4976517;28;20227;-77
2023/06/15 07:15:27;;;;;;;5.47;4.63;;;24.50;98.00;;;;;;4990854;28;20265;-77
2023/06/15 07:17:54;;;;;;;5.60;4.50;;;24.50;96.70;;;;;;4975400;28;20221;-77
2023/06/15 07:20:20;;;;;;;6.70;4.90;;;24.40;98.30;;;;;;4990656;28;20296;-77
2023/06/15 07:22:47;;;;;;;5.60;4.20;;;24.40;98.40;;;;;;4975548;28;20202;-77
2023/06/15 07:25:15;;;;;;;7.60;4.77;;;24.60;97.50;;;;;;4974977;28;20564;-77
2023/06/15 07:27:42;;;;;;;7.20;5.30;;;24.80;98.20;;;;;;4975520;28;20289;-78
2023/06/15 07:30:10;;;;;;;6.10;5.00;;;24.90;97.50;;;;;;4976330;28;20206;-77
2023/06/15 07:32:37;;;;;;;5.10;4.60;;;24.50;97.50;;;;;;4975777;28;20205;-76
2023/06/15 07:35:04;;;;;;;5.47;4.60;;;24.60;98.70;;;;;;4975703;28;20201;-77
2023/06/15 07:37:31;;;;;;;6.00;4.87;;;24.80;98.20;;;;;;4976170;28;20725;-77
2023/06/15 07:39:58;;;;;;;8.17;5.13;;;25.10;97.50;;;;;;4990462;28;20712;-76
2023/06/15 07:42:26;;;;;;;5.53;4.80;;;25.10;96.80;;;;;;4975673;28;20285;-77
2023/06/15 07:44:53;;;;;;;6.13;5.53;;;25.50;95.70;;;;;;4974993;28;20249;-78
2023/06/15 07:47:20;;;;;;;5.83;4.10;;;25.20;96.60;;;;;;4975423;28;20320;-78
2023/06/15 07:49:47;;;;;;;5.30;4.80;;;25.40;96.40;;;;;;4974700;28;20202;-79
2023/06/15 07:52:14;;;;;;;6.07;4.50;;;25.20;96.30;;;;;;4971491;28;20206;-78
2023/06/15 07:54:41;;;;;;;6.20;4.30;;;25.50;96.50;;;;;;4975287;28;20202;-77
2023/06/15 07:57:08;;;;;;;6.97;5.70;;;25.90;96.10;;;;;;4973480;28;20257;-75
2023/06/15 07:59:36;;;;;;;5.63;5.13;;;25.90;94.20;;;;;;4975425;28;20245;-77
2023/06/15 08:02:03;;;;;;;5.93;5.40;;;26.00;95.10;;;;;;4969680;28;20203;-77
2023/06/15 08:04:30;;;;;;;6.73;5.53;;;25.60;95.20;;;;;;4975948;28;20202;-77
2023/06/15 08:06:57;;;;;;;6.07;4.97;;;25.40;95.40;;;;;;4974206;28;20265;-77
2023/06/15 08:09:24;;;;;;;6.73;6.10;;;25.80;96.40;;;;;;4975978;28;20194;-78
2023/06/15 08:11:51;;;;;;;6.77;6.17;;;26.30;95.90;;;;;;4975475;28;20221;-76
2023/06/15 08:14:19;;;;;;;7.20;6.50;;;26.20;95.20;;;;;;4975213;28;20253;-78
2023/06/15 08:16:48;;;;;;;7.13;6.53;;;26.40;95.60;;;;;;4974016;28;20222;-77
2023/06/15 08:19:15;;;;;;;7.10;6.50;;;26.50;95.90;;;;;;4974801;28;20198;-79
2023/06/15 08:21:42;;;;;;;7.37;6.30;;;26.60;95.60;;;;;;4975329;28;20197;-77
2023/06/15 08:24:09;;;;;;;7.07;6.47;;;26.80;96.10;;;;;;4976127;28;20202;-78
2023/06/15 08:26:35;;;;;;;9.97;6.93;;;27.10;95.00;;;;;;4974724;28;20668;-78
2023/06/15 08:29:02;;;;;;;5.37;4.77;;;27.20;93.90;;;;;;4974148;28;20205;-77
2023/06/15 08:31:30;;;;;;;7.13;6.47;;;27.00;94.90;;;;;;4975303;28;20289;-77
2023/06/15 08:33:58;;;;;;;5.40;3.97;;;27.00;94.40;;;;;;4974089;28;20206;-78
2023/06/15 08:36:25;;;;;;;8.10;4.63;;;27.00;93.10;;;;;;4974973;28;20697;-79
2023/06/15 08:38:51;;;;;;;5.70;3.73;;;26.80;93.30;;;;;;4977960;28;20202;-80
2023/06/15 08:41:20;;;;;;;4.03;3.63;;;26.90;94.10;;;;;;4992723;28;20691;-80
2023/06/15 08:43:49;;;;;;;5.00;4.40;;;27.30;93.40;;;;;;4977089;28;20202;-80
2023/06/15 08:46:17;;;;;;;6.50;4.10;;;27.60;93.50;;;;;;4977748;28;20229;-81
2023/06/15 08:48:47;;;;;;;5.87;3.97;;;27.70;92.80;;;;;;4979394;28;20724;-81
2023/06/15 08:51:16;;;;;;;6.90;6.30;;;27.90;92.60;;;;;;4978564;28;20212;-80
2023/06/15 08:53:45;;;;;;;6.27;4.80;;;27.70;92.10;;;;;;4978331;28;20198;-81
2023/06/15 08:56:12;;;;;;;7.43;5.57;;;27.40;92.20;;;;;;4980051;28;20209;-80
2023/06/15 08:58:39;;;;;;;7.47;5.57;;;27.50;91.20;;;;;;4977046;28;20276;-80
2023/06/15 09:01:07;;;;;;;5.73;4.40;;;27.70;91.60;;;;;;4987261;28;20222;-80
2023/06/15 09:03:34;;;;;;;6.70;4.40;;;27.30;92.10;;;;;;4980502;28;20707;-81
2023/06/15 09:06:01;;;;;;;6.30;4.63;;;26.90;92.00;;;;;;4978604;28;20257;-81
2023/06/15 09:08:29;;;;;;;6.70;4.43;;;27.10;93.30;;;;;;4979013;28;20202;-80
2023/06/15 09:11:06;;;;;;;5.07;4.40;;;27.80;92.40;;;;;;4977974;28;20209;-80
2023/06/15 09:13:34;;;;;;;6.50;4.23;;;28.30;92.10;;;;;;4976940;28;20209;-79
2023/06/15 09:16:02;;;;;;;6.00;4.03;;;28.30;90.90;;;;;;4979845;28;20237;-79
2023/06/15 09:18:29;;;;;;;5.13;3.97;;;27.90;91.70;;;;;;4978671;28;20209;-80
2023/06/15 09:20:59;;;;;;;5.27;4.03;;;27.70;90.90;;;;;;4977587;28;20205;-79
2023/06/15 09:23:26;;;;;;;5.10;4.00;;;27.80;91.10;;;;;;4987426;28;20201;-80
2023/06/15 09:25:56;;;;;;;4.53;3.70;;;28.20;90.10;;;;;;4979700;28;20228;-81
2023/06/15 09:28:28;;;;;;;4.93;3.83;;;28.50;90.60;;;;;;4985510;28;20668;-79
2023/06/15 09:30:56;;;;;;;7.47;4.37;;;28.50;89.60;;;;;;4977915;28;20201;-79
2023/06/15 09:33:23;;;;;;;3.93;3.63;;;28.00;88.80;;;;;;4980758;28;20619;-79
2023/06/15 09:35:58;;;;;;;5.67;3.97;;;27.40;90.20;;;;;;4977784;28;20218;-81
2023/06/15 09:38:25;;;;;;;5.33;4.03;;;27.70;90.30;;;;;;4981308;28;20197;-79
2023/06/15 09:40:52;;;;;;;4.80;3.53;;;27.90;88.90;;;;;;4978116;28;20198;-81
2023/06/15 09:43:21;;;;;;;3.83;3.30;;;28.10;86.40;;;;;;4974169;28;20228;-81
2023/06/15 09:45:51;;;;;;;4.07;3.40;;;28.20;85.00;;;;;;4981012;28;20245;-82
2023/06/15 09:48:18;;;;;;;5.73;3.70;;;28.20;87.60;;;;;;4990343;28;20201;-80
2023/06/15 09:50:49;;;;;;;5.90;5.27;;;28.20;84.50;;;;;;4987897;28;20932;-80
2023/06/15 09:53:18;;;;;;;5.10;4.60;;;28.00;86.80;;;;;;4990507;28;20198;-80
2023/06/15 09:55:47;;;;;;;4.87;3.90;;;27.90;83.50;;;;;;4991557;28;20205;-81
2023/06/15 09:58:14;;;;;;;4.53;4.10;;;27.70;83.90;;;;;;4980684;28;20209;-80
2023/06/15 10:00:42;;;;;;;4.57;4.17;;;27.70;84.10;;;;;;4987066;28;20198;-81
2023/06/15 10:03:12;;;;;;;6.50;4.43;;;28.40;84.40;;;;;;4984559;28;20306;-81
2023/06/15 10:05:43;;;;;;;5.57;4.40;;;28.30;83.30;;;;;;4986643;28;20313;-79
2023/06/15 10:08:12;;;;;;;6.93;4.67;;;28.20;83.20;;;;;;4974646;28;20287;-79
2023/06/15 10:10:43;;;;;;;4.10;3.80;;;28.70;80.60;;;;;;4977612;28;20198;-80
2023/06/15 10:13:20;;;;;;;6.00;5.50;;;28.40;81.50;;;;;;4977690;28;20205;-81
2023/06/15 10:15:52;;;;;;;6.10;5.60;;;28.40;79.70;;;;;;4988860;28;20228;-82
2023/06/15 10:18:22;;;;;;;6.03;5.53;;;28.40;80.90;;;;;;4987664;28;20194;-79
2023/06/15 10:20:52;;;;;;;5.07;4.57;;;28.00;80.80;;;;;;4982566;28;20240;-81
2023/06/15 10:23:24;;;;;;;5.63;3.90;;;28.10;80.60;;;;;;4985965;28;20201;-80
2023/06/15 10:25:53;;;;;;;5.37;4.87;;;28.10;76.00;;;;;;4983659;28;20696;-81
2023/06/15 10:28:23;;;;;;;5.80;5.30;;;28.10;78.10;;;;;;4985417;28;20205;-79
2023/06/15 10:30:58;;;;;;;4.73;4.33;;;28.40;78.30;;;;;;4985140;28;20202;-80
2023/06/15 10:33:31;;;;;;;5.47;5.03;;;28.20;77.60;;;;;;4984397;28;20201;-80
2023/06/15 10:36:03;;;;;;;5.23;4.83;;;28.40;75.70;;;;;;5003480;23;20237;-81
2023/06/15 10:38:37;;;;;;;5.23;4.83;;;28.20;77.40;;;;;;5014079;28;20675;-78
2023/06/15 10:41:05;;;;;;;7.53;4.90;;;27.90;75.00;;;;;;5013517;28;20200;-78
2023/06/15 10:43:32;;;;;;;6.70;5.40;;;27.70;77.50;;;;;;5016697;28;20582;-80
2023/06/15 10:46:02;;;;;;;5.77;5.27;;;27.10;76.10;;;;;;5016378;28;20208;-78
2023/06/15 10:48:30;;;;;;;5.27;4.73;;;27.10;79.00;;;;;;5017821;28;20242;-78
2023/06/15 10:51:03;;;;;;;5.30;3.87;;;27.40;78.40;;;;;;5011948;28;20201;-77
2023/06/15 10:53:36;;;;;;;4.87;3.53;;;27.60;78.60;;;;;;5014664;28;20629;-77
2023/06/15 10:56:10;;;;;;;3.63;3.33;;;27.90;78.40;;;;;;5016716;28;20202;-78
2023/06/15 10:58:53;;;;;;;4.97;4.10;;;28.20;79.40;;;;;;5009701;28;20247;-79
2023/06/15 11:01:23;;;;;;;4.40;4.00;;;28.10;78.20;;;;;;5011362;28;20224;-78
2023/06/15 11:03:50;;;;;;;5.03;4.53;;;28.00;78.20;;;;;;5011349;28;20239;-78
2023/06/15 11:06:21;;;;;;;5.60;4.20;;;27.50;76.20;;;;;;5015227;28;20656;-78
2023/06/15 11:08:49;;;;;;;4.60;4.20;;;27.40;78.00;;;;;;5015995;28;20201;-79
2023/06/15 11:11:19;;;;;;;6.73;4.63;;;27.70;78.60;;;;;;5005704;28;20300;-77
2023/06/15 11:13:57;;;;;;;6.60;4.67;;;27.70;77.00;;;;;;5016027;28;20201;-78
2023/06/15 11:16:29;;;;;;;4.90;4.33;;;26.90;76.50;;;;;;5014907;28;20208;-78
2023/06/15 11:18:57;;;;;;;6.60;4.37;;;26.90;80.70;;;;;;5016276;28;20213;-77
2023/06/15 11:21:29;;;;;;;5.03;4.60;;;27.30;82.30;;;;;;5008850;28;20204;-78
2023/06/15 11:23:57;;;;;;;6.17;5.10;;;27.50;82.20;;;;;;5012787;28;20197;-77
2023/06/15 11:26:28;;;;;;;4.90;4.50;;;27.40;78.90;;;;;;5014428;28;20217;-77
2023/06/15 11:28:57;;;;;;;4.93;4.53;;;27.30;79.90;;;;;;5006813;28;20200;-77
2023/06/15 11:31:27;;;;;;;5.00;4.60;;;27.30;77.70;;;;;;5016171;28;20197;-77
2023/06/15 11:33:56;;;;;;;6.67;5.10;;;27.10;77.70;;;;;;5020811;28;20228;-77
2023/06/15 11:36:23;;;;;;;5.40;4.30;;;26.90;78.90;;;;;;5015475;28;20231;-78
2023/06/15 11:38:50;;;;;;;3.77;3.40;;;26.80;76.70;;;;;;5011616;28;20197;-77
2023/06/15 11:41:17;;;;;;;3.57;3.27;;;27.10;75.50;;;;;;5015982;28;20200;-78
2023/06/15 11:43:48;;;;;;;3.77;3.07;;;27.10;74.60;;;;;;5014566;28;20209;-77
2023/06/15 11:46:16;;;;;;;3.80;3.47;;;27.00;74.40;;;;;;5012355;28;20221;-77
2023/06/15 11:48:44;;;;;;;3.20;2.90;;;27.40;77.20;;;;;;5013806;28;20196;-77
2023/06/15 11:51:14;;;;;;;3.57;3.23;;;27.80;75.60;;;;;;5012305;28;20207;-77
2023/06/15 11:53:42;;;;;;;4.97;3.10;;;28.10;73.70;;;;;;5014558;28;20590;-77
2023/06/15 11:56:12;;;;;;;4.00;3.57;;;27.70;76.60;;;;;;5014827;28;20197;-77
2023/06/15 11:58:39;;;;;;;4.60;3.40;;;27.40;77.60;;;;;;5007969;28;20287;-77
2023/06/15 12:01:06;;;;;;;4.83;4.33;;;27.20;79.60;;;;;;5012026;28;20243;-76
2023/06/15 12:03:39;;;;;;;5.07;4.57;;;27.30;83.10;;;;;;5011342;28;20192;-78
2023/06/15 12:06:07;;;;;;;4.63;4.23;;;27.00;81.10;;;;;;5010871;28;20680;-78
2023/06/15 12:08:36;;;;;;;5.23;3.77;;;26.90;79.80;;;;;;5013759;28;20227;-77
2023/06/15 12:11:03;;;;;;;5.33;3.47;;;26.60;80.10;;;;;;5013282;28;20263;-77
2023/06/15 12:13:30;;;;;;;4.10;3.70;;;26.60;79.30;;;;;;5013154;28;20232;-77
2023/06/15 12:15:59;;;;;;;4.73;3.47;;;26.50;81.00;;;;;;5013990;28;20204;-77
2023/06/15 12:18:26;;;;;;;4.50;3.23;;;26.50;80.20;;;;;;5013771;28;20246;-78
2023/06/15 12:20:53;;;;;;;5.07;3.67;;;26.30;80.90;;;;;;5014894;28;20239;-77
2023/06/15 12:23:27;;;;;;;5.07;3.40;;;26.20;79.30;;;;;;5021231;28;20563;-79
2023/06/15 12:25:56;;;;;;;3.70;3.33;;;26.10;80.40;;;;;;5014533;28;20201;-81
2023/06/15 12:28:24;;;;;;;3.50;3.20;;;26.30;80.70;;;;;;5014603;28;20592;-78
2023/06/15 12:30:52;;;;;;;4.63;3.40;;;26.40;80.40;;;;;;5007385;28;20725;-78
2023/06/15 12:33:30;;;;;;;3.70;3.37;;;26.60;80.60;;;;;;5009603;28;20196;-79
2023/06/15 12:35:59;;;;;;;3.77;3.23;;;26.40;78.40;;;;;;5012949;28;20196;-78
2023/06/15 12:38:27;;;;;;;5.33;3.30;;;26.30;81.30;;;;;;5012837;28;20224;-77
2023/06/15 12:40:57;;;;;;;4.13;3.40;;;26.50;82.20;;;;;;5013047;28;20200;-76
2023/06/15 12:43:26;;;;;;;4.27;3.30;;;26.80;80.90;;;;;;5013227;28;20270;-78
2023/06/15 12:45:53;;;;;;;4.13;3.70;;;27.00;79.50;;;;;;5012847;28;20200;-77
2023/06/15 12:48:21;;;;;;;3.93;3.20;;;26.90;78.20;;;;;;5005910;28;20224;-77
2023/06/15 12:50:48;;;;;;;3.80;3.40;;;27.00;80.10;;;;;;5011171;28;20220;-77